Main page
METAR-TAF:

METAR-TAF

Airports :

York Airport

York, Pennsylvania, United States

latitude: 39-55-10N, longitude: 076-52-37W, elevation: 479 ft

Current weather observation

The report was made 13 minutes ago, at 02:53 UTC
Calm wind
Temperature 30°F
Humidity 80%
Pressure 30.30 in. Hg
Visibility: 10 miles
Broken clouds at a height of 3400 ft

METAR: KTHV 090253Z AUTO 00000KT 10SM BKN034 M01/M04 A3030 RMK AO2 SLP267 T10111039 58009

Time: 22:06 (03:06 UTC)


TAF: missing

Weather observations and forecasts of more than 4000 airports (METAR and TAF reports).

The available stations are represented by yellow and red dots on the map.

Hover mouse over dot to see the name of the station.

Then click to see weather observations and forecasts.

To change the map : click on the green buttons with a black cross to zoom in, on the green button with a dash to zoom out, or on the green arrows for adjacent maps.


METAR-TAF: